sensor_id;sensor_type;location;lat;lon;timestamp;pressure;altitude;pressure_sealevel;temperature;humidity
74680;BME280;63211;48.548;2.704;2023-07-22T00:01:10;100873.41;;;22.82;54.21
74680;BME280;63211;48.548;2.704;2023-07-22T00:03:36;100875.56;;;22.80;53.70
74680;BME280;63211;48.548;2.704;2023-07-22T00:06:04;100870.91;;;22.80;53.80
74680;BME280;63211;48.548;2.704;2023-07-22T00:08:31;100859.09;;;22.80;54.01
74680;BME280;63211;48.548;2.704;2023-07-22T00:10:58;100868.16;;;22.80;53.60
74680;BME280;63211;48.548;2.704;2023-07-22T00:13:25;100864.56;;;22.80;53.96
74680;BME280;63211;48.548;2.704;2023-07-22T00:15:53;100866.50;;;22.79;54.08
74680;BME280;63211;48.548;2.704;2023-07-22T00:18:20;100875.81;;;22.78;53.63
74680;BME280;63211;48.548;2.704;2023-07-22T00:20:47;100853.41;;;22.70;54.06
74680;BME280;63211;48.548;2.704;2023-07-22T00:23:13;100871.97;;;22.79;53.72
74680;BME280;63211;48.548;2.704;2023-07-22T00:25:41;100866.50;;;22.79;53.52
74680;BME280;63211;48.548;2.704;2023-07-22T00:28:07;100865.41;;;22.80;53.48
74680;BME280;63211;48.548;2.704;2023-07-22T00:30:34;100866.50;;;22.79;53.33
74680;BME280;63211;48.548;2.704;2023-07-22T00:33:02;100867.31;;;22.80;53.57
74680;BME280;63211;48.548;2.704;2023-07-22T00:35:29;100868.41;;;22.79;53.61
74680;BME280;63211;48.548;2.704;2023-07-22T00:37:57;100850.28;;;22.78;53.65
74680;BME280;63211;48.548;2.704;2023-07-22T00:40:23;100859.34;;;22.78;53.44
74680;BME280;63211;48.548;2.704;2023-07-22T00:42:50;100857.06;;;22.75;53.83
74680;BME280;63211;48.548;2.704;2023-07-22T00:45:17;100857.66;;;22.77;53.81
74680;BME280;63211;48.548;2.704;2023-07-22T00:47:44;100850.50;;;22.76;53.64
74680;BME280;63211;48.548;2.704;2023-07-22T00:50:13;100862.91;;;22.79;53.66
74680;BME280;63211;48.548;2.704;2023-07-22T00:52:40;100852.19;;;22.77;53.53
74680;BME280;63211;48.548;2.704;2023-07-22T00:55:07;100857.06;;;22.75;53.18
74680;BME280;63211;48.548;2.704;2023-07-22T00:57:34;100855.97;;;22.76;53.39
74680;BME280;63211;48.548;2.704;2023-07-22T01:00:01;100851.31;;;22.77;53.39
74680;BME280;63211;48.548;2.704;2023-07-22T01:02:28;100845.81;;;22.77;53.53
74680;BME280;63211;48.548;2.704;2023-07-22T01:04:54;100844.16;;;22.76;53.21
74680;BME280;63211;48.548;2.704;2023-07-22T01:07:22;100844.16;;;22.76;53.16
74680;BME280;63211;48.548;2.704;2023-07-22T01:09:56;100842.50;;;22.75;53.35
74680;BME280;63211;48.548;2.704;2023-07-22T01:12:23;100844.16;;;22.76;53.40
74680;BME280;63211;48.548;2.704;2023-07-22T01:14:50;100830.28;;;22.66;53.05
74680;BME280;63211;48.548;2.704;2023-07-22T01:17:18;100836.94;;;22.70;53.20
74680;BME280;63211;48.548;2.704;2023-07-22T01:19:46;100839.16;;;22.73;53.17
74680;BME280;63211;48.548;2.704;2023-07-22T01:22:13;100837.75;;;22.70;53.07
74680;BME280;63211;48.548;2.704;2023-07-22T01:24:41;100841.09;;;22.72;53.30
74680;BME280;63211;48.548;2.704;2023-07-22T01:27:08;100828.94;;;22.68;53.12
74680;BME280;63211;48.548;2.704;2023-07-22T01:29:35;100837.50;;;22.72;53.54
74680;BME280;63211;48.548;2.704;2023-07-22T01:32:02;100835.00;;;22.70;53.25
74680;BME280;63211;48.548;2.704;2023-07-22T01:34:30;100833.94;;;22.71;53.05
74680;BME280;63211;48.548;2.704;2023-07-22T01:36:58;100833.94;;;22.71;53.07
74680;BME280;63211;48.548;2.704;2023-07-22T01:39:25;100826.53;;;22.72;52.96
74680;BME280;63211;48.548;2.704;2023-07-22T01:41:54;100833.69;;;22.73;53.51
74680;BME280;63211;48.548;2.704;2023-07-22T01:44:20;100829.53;;;22.70;53.46
74680;BME280;63211;48.548;2.704;2023-07-22T01:46:47;100833.34;;;22.69;53.31
74680;BME280;63211;48.548;2.704;2023-07-22T01:49:13;100833.09;;;22.71;53.45
74680;BME280;63211;48.548;2.704;2023-07-22T01:51:40;100827.59;;;22.71;53.57
74680;BME280;63211;48.548;2.704;2023-07-22T01:54:07;100825.94;;;22.70;53.54
74680;BME280;63211;48.548;2.704;2023-07-22T01:56:34;100827.03;;;22.69;53.45
74680;BME280;63211;48.548;2.704;2023-07-22T01:59:02;100803.28;;;22.57;53.14
74680;BME280;63211;48.548;2.704;2023-07-22T02:01:29;100824.28;;;22.69;52.88
74680;BME280;63211;48.548;2.704;2023-07-22T02:03:55;100826.19;;;22.68;53.46
74680;BME280;63211;48.548;2.704;2023-07-22T02:06:22;100817.38;;;22.66;53.26
74680;BME280;63211;48.548;2.704;2023-07-22T02:08:49;100823.69;;;22.67;52.99
74680;BME280;63211;48.548;2.704;2023-07-22T02:11:16;100815.16;;;22.63;52.80
74680;BME280;63211;48.548;2.704;2023-07-22T02:13:43;100819.28;;;22.66;53.16
74680;BME280;63211;48.548;2.704;2023-07-22T02:16:11;100831.38;;;22.65;53.32
74680;BME280;63211;48.548;2.704;2023-07-22T02:18:38;100823.16;;;22.65;53.34
74680;BME280;63211;48.548;2.704;2023-07-22T02:21:05;100824.78;;;22.66;53.13
74680;BME280;63211;48.548;2.704;2023-07-22T02:23:31;100826.16;;;22.63;52.79
74680;BME280;63211;48.548;2.704;2023-07-22T02:25:58;100836.03;;;22.64;53.33
74680;BME280;63211;48.548;2.704;2023-07-22T02:30:52;100829.13;;;22.61;52.97
74680;BME280;63211;48.548;2.704;2023-07-22T02:33:21;100829.72;;;22.63;53.21
74680;BME280;63211;48.548;2.704;2023-07-22T02:35:48;100799.78;;;22.45;52.81
74680;BME280;63211;48.548;2.704;2023-07-22T02:38:14;100812.16;;;22.48;52.97
74680;BME280;63211;48.548;2.704;2023-07-22T02:40:41;100744.66;;;21.97;52.89
74680;BME280;63211;48.548;2.704;2023-07-22T02:45:34;100827.38;;;22.55;53.15
74680;BME280;63211;48.548;2.704;2023-07-22T02:48:01;100830.47;;;22.59;52.90
74680;BME280;63211;48.548;2.704;2023-07-22T02:50:30;100840.59;;;22.58;52.93
74680;BME280;63211;48.548;2.704;2023-07-22T02:52:57;100841.44;;;22.59;53.02
74680;BME280;63211;48.548;2.704;2023-07-22T02:55:24;100803.28;;;22.41;52.65
74680;BME280;63211;48.548;2.704;2023-07-22T02:57:50;100832.38;;;22.58;52.90
74680;BME280;63211;48.548;2.704;2023-07-22T03:00:18;100833.63;;;22.51;52.63
74680;BME280;63211;48.548;2.704;2023-07-22T03:02:49;100837.78;;;22.53;53.30
74680;BME280;63211;48.548;2.704;2023-07-22T03:05:15;100841.09;;;22.55;52.72
74680;BME280;63211;48.548;2.704;2023-07-22T03:07:43;100840.03;;;22.56;52.86
74680;BME280;63211;48.548;2.704;2023-07-22T03:10:10;100844.69;;;22.56;52.54
74680;BME280;63211;48.548;2.704;2023-07-22T03:12:38;100837.78;;;22.53;52.82
74680;BME280;63211;48.548;2.704;2023-07-22T03:15:05;100842.78;;;22.56;53.11
74680;BME280;63211;48.548;2.704;2023-07-22T03:17:34;100841.94;;;22.56;53.03
74680;BME280;63211;48.548;2.704;2023-07-22T03:20:01;100841.34;;;22.54;52.61
74680;BME280;63211;48.548;2.704;2023-07-22T03:22:27;100841.34;;;22.54;52.69
74680;BME280;63211;48.548;2.704;2023-07-22T03:24:55;100836.13;;;22.52;53.11
74680;BME280;63211;48.548;2.704;2023-07-22T03:27:22;100837.78;;;22.53;53.00
74680;BME280;63211;48.548;2.704;2023-07-22T03:29:49;100839.69;;;22.53;52.96
74680;BME280;63211;48.548;2.704;2023-07-22T03:32:15;100838.84;;;22.52;52.69
74680;BME280;63211;48.548;2.704;2023-07-22T03:34:42;100842.44;;;22.53;52.95
74680;BME280;63211;48.548;2.704;2023-07-22T03:37:09;100844.00;;;22.49;52.80
74680;BME280;63211;48.548;2.704;2023-07-22T03:39:35;100851.75;;;22.52;52.84
74680;BME280;63211;48.548;2.704;2023-07-22T03:42:04;100855.31;;;22.52;52.87
74680;BME280;63211;48.548;2.704;2023-07-22T03:44:31;100857.22;;;22.52;52.83
74680;BME280;63211;48.548;2.704;2023-07-22T03:46:59;100848.31;;;22.45;52.68
74680;BME280;63211;48.548;2.704;2023-07-22T03:49:26;100852.72;;;22.46;52.99
74680;BME280;63211;48.548;2.704;2023-07-22T03:51:52;100856.66;;;22.50;52.54
74680;BME280;63211;48.548;2.704;2023-07-22T03:54:19;100859.13;;;22.51;52.60
74680;BME280;63211;48.548;2.704;2023-07-22T03:56:45;100852.19;;;22.44;52.62
74680;BME280;63211;48.548;2.704;2023-07-22T03:59:13;100862.97;;;22.50;52.82
74680;BME280;63211;48.548;2.704;2023-07-22T04:01:40;100857.72;;;22.49;52.47
74680;BME280;63211;48.548;2.704;2023-07-22T04:04:06;100860.72;;;22.47;52.24
74680;BME280;63211;48.548;2.704;2023-07-22T04:06:33;100853.81;;;22.45;52.78
74680;BME280;63211;48.548;2.704;2023-07-22T04:09:00;100856.31;;;22.46;52.23
74680;BME280;63211;48.548;2.704;2023-07-22T04:11:26;100854.63;;;22.45;52.26
74680;BME280;63211;48.548;2.704;2023-07-22T04:13:53;100851.84;;;22.40;52.43
74680;BME280;63211;48.548;2.704;2023-07-22T04:16:21;100860.41;;;22.44;52.70
74680;BME280;63211;48.548;2.704;2023-07-22T04:18:48;100853.00;;;22.44;52.62
74680;BME280;63211;48.548;2.704;2023-07-22T04:21:14;100856.56;;;22.45;52.62
74680;BME280;63211;48.548;2.704;2023-07-22T04:23:41;100851.25;;;22.38;52.35
74680;BME280;63211;48.548;2.704;2023-07-22T04:26:09;100859.81;;;22.42;52.17
74680;BME280;63211;48.548;2.704;2023-07-22T04:28:35;100852.44;;;22.42;52.81
74680;BME280;63211;48.548;2.704;2023-07-22T04:31:03;100855.16;;;22.42;52.53
74680;BME280;63211;48.548;2.704;2023-07-22T04:33:31;100858.66;;;22.38;52.26
74680;BME280;63211;48.548;2.704;2023-07-22T04:35:59;100857.06;;;22.42;52.25
74680;BME280;63211;48.548;2.704;2023-07-22T04:38:26;100859.22;;;22.40;51.93
74680;BME280;63211;48.548;2.704;2023-07-22T04:40:53;100852.66;;;22.41;52.32
74680;BME280;63211;48.548;2.704;2023-07-22T04:43:20;100859.22;;;22.40;52.24
74680;BME280;63211;48.548;2.704;2023-07-22T04:45:46;100858.16;;;22.41;52.40
74680;BME280;63211;48.548;2.704;2023-07-22T04:48:14;100860.06;;;22.40;52.31
74680;BME280;63211;48.548;2.704;2023-07-22T04:50:42;100856.50;;;22.40;52.08
74680;BME280;63211;48.548;2.704;2023-07-22T04:53:10;100853.16;;;22.38;52.29
74680;BME280;63211;48.548;2.704;2023-07-22T04:55:38;100848.75;;;22.37;52.31
74680;BME280;63211;48.548;2.704;2023-07-22T04:58:05;100848.75;;;22.37;51.96
74680;BME280;63211;48.548;2.704;2023-07-22T05:00:32;100849.00;;;22.35;51.86
74680;BME280;63211;48.548;2.704;2023-07-22T05:02:59;100843.16;;;22.32;52.25
74680;BME280;63211;48.548;2.704;2023-07-22T05:05:25;100851.50;;;22.37;52.38
74680;BME280;63211;48.548;2.704;2023-07-22T05:07:53;100850.41;;;22.38;51.94
74680;BME280;63211;48.548;2.704;2023-07-22T05:10:20;100854.00;;;22.38;51.88
74680;BME280;63211;48.548;2.704;2023-07-22T05:12:47;100850.91;;;22.35;51.81
74680;BME280;63211;48.548;2.704;2023-07-22T05:15:13;100857.22;;;22.35;51.81
74680;BME280;63211;48.548;2.704;2023-07-22T05:17:40;100849.75;;;22.31;52.09
74680;BME280;63211;48.548;2.704;2023-07-22T05:20:08;100855.56;;;22.34;51.98
74680;BME280;63211;48.548;2.704;2023-07-22T05:22:36;100864.03;;;22.33;52.06
74680;BME280;63211;48.548;2.704;2023-07-22T05:25:06;100864.63;;;22.35;52.20
74680;BME280;63211;48.548;2.704;2023-07-22T05:27:33;100857.47;;;22.34;51.73
74680;BME280;63211;48.548;2.704;2023-07-22T05:30:00;100862.97;;;22.34;51.89
74680;BME280;63211;48.548;2.704;2023-07-22T05:32:28;100859.28;;;22.28;51.85
74680;BME280;63211;48.548;2.704;2023-07-22T05:34:54;100860.47;;;22.32;51.59
74680;BME280;63211;48.548;2.704;2023-07-22T05:37:22;100864.53;;;22.29;52.06
74680;BME280;63211;48.548;2.704;2023-07-22T05:39:49;100859.28;;;22.28;51.63
74680;BME280;63211;48.548;2.704;2023-07-22T05:42:17;100867.03;;;22.31;51.94
74680;BME280;63211;48.548;2.704;2023-07-22T05:44:44;100856.88;;;22.32;51.91
74680;BME280;63211;48.548;2.704;2023-07-22T05:47:11;100827.78;;;22.14;52.09
74680;BME280;63211;48.548;2.704;2023-07-22T05:49:37;100860.13;;;22.28;51.95
74680;BME280;63211;48.548;2.704;2023-07-22T05:52:05;100856.22;;;22.24;51.83
74680;BME280;63211;48.548;2.704;2023-07-22T05:54:31;100855.47;;;22.29;52.12
74680;BME280;63211;48.548;2.704;2023-07-22T05:56:58;100859.03;;;22.29;52.31
74680;BME280;63211;48.548;2.704;2023-07-22T05:59:26;100857.13;;;22.30;51.82
74680;BME280;63211;48.548;2.704;2023-07-22T06:01:52;100863.44;;;22.31;52.03
74680;BME280;63211;48.548;2.704;2023-07-22T06:04:19;100861.19;;;22.27;51.89
74680;BME280;63211;48.548;2.704;2023-07-22T06:06:45;100863.94;;;22.27;51.83
74680;BME280;63211;48.548;2.704;2023-07-22T06:09:12;100834.09;;;22.14;51.66
74680;BME280;63211;48.548;2.704;2023-07-22T06:11:39;100865.84;;;22.27;51.97
74680;BME280;63211;48.548;2.704;2023-07-22T06:14:05;100865.03;;;22.26;51.70
74680;BME280;63211;48.548;2.704;2023-07-22T06:16:33;100863.13;;;22.27;51.60
74680;BME280;63211;48.548;2.704;2023-07-22T06:19:00;100848.66;;;22.15;51.81
74680;BME280;63211;48.548;2.704;2023-07-22T06:21:26;100871.59;;;22.25;51.66
74680;BME280;63211;48.548;2.704;2023-07-22T06:23:53;100872.66;;;22.24;51.67
74680;BME280;63211;48.548;2.704;2023-07-22T06:26:19;100863.88;;;22.22;51.73
74680;BME280;63211;48.548;2.704;2023-07-22T06:28:47;100869.91;;;22.24;51.91
74680;BME280;63211;48.548;2.704;2023-07-22T06:31:13;100846.63;;;22.10;52.25
74680;BME280;63211;48.548;2.704;2023-07-22T06:33:42;100871.81;;;22.24;52.15
74680;BME280;63211;48.548;2.704;2023-07-22T06:36:09;100868.00;;;22.25;52.43
74680;BME280;63211;48.548;2.704;2023-07-22T06:38:35;100874.31;;;22.25;51.89
74680;BME280;63211;48.548;2.704;2023-07-22T06:41:02;100875.41;;;22.24;52.38
74680;BME280;63211;48.548;2.704;2023-07-22T06:43:28;100872.66;;;22.24;52.23
74680;BME280;63211;48.548;2.704;2023-07-22T06:45:55;100870.69;;;22.20;51.80
74680;BME280;63211;48.548;2.704;2023-07-22T06:48:21;100874.56;;;22.24;52.23
74680;BME280;63211;48.548;2.704;2023-07-22T06:50:49;100878.16;;;22.24;51.89
74680;BME280;63211;48.548;2.704;2023-07-22T06:53:16;100851.53;;;22.08;52.26
74680;BME280;63211;48.548;2.704;2023-07-22T06:55:48;100881.72;;;22.25;52.08
74680;BME280;63211;48.548;2.704;2023-07-22T06:58:16;100878.91;;;22.20;52.43
74680;BME280;63211;48.548;2.704;2023-07-22T07:00:42;100882.81;;;22.24;52.17
74680;BME280;63211;48.548;2.704;2023-07-22T07:03:09;100884.75;;;22.23;52.50
74680;BME280;63211;48.548;2.704;2023-07-22T07:05:35;100884.47;;;22.25;52.30
74680;BME280;63211;48.548;2.704;2023-07-22T07:08:04;100886.38;;;22.24;52.57
74680;BME280;63211;48.548;2.704;2023-07-22T07:10:31;100881.16;;;22.23;52.64
74680;BME280;63211;48.548;2.704;2023-07-22T07:12:57;100883.63;;;22.24;52.31
74680;BME280;63211;48.548;2.704;2023-07-22T07:15:24;100883.06;;;22.22;52.27
74680;BME280;63211;48.548;2.704;2023-07-22T07:17:51;100887.22;;;22.25;52.90
74680;BME280;63211;48.548;2.704;2023-07-22T07:20:17;100876.75;;;22.22;52.81
74680;BME280;63211;48.548;2.704;2023-07-22T07:22:44;100886.38;;;22.24;52.38
74680;BME280;63211;48.548;2.704;2023-07-22T07:25:12;100873.50;;;22.25;52.48
74680;BME280;63211;48.548;2.704;2023-07-22T07:27:40;100875.41;;;22.24;52.92
74680;BME280;63211;48.548;2.704;2023-07-22T07:30:08;100888.03;;;22.25;53.05
74680;BME280;63211;48.548;2.704;2023-07-22T07:32:35;100888.88;;;22.26;52.46
74680;BME280;63211;48.548;2.704;2023-07-22T07:35:02;100885.28;;;22.25;52.86
74680;BME280;63211;48.548;2.704;2023-07-22T07:37:31;100882.31;;;22.27;52.91
74680;BME280;63211;48.548;2.704;2023-07-22T07:39:57;100881.47;;;22.26;52.58
74680;BME280;63211;48.548;2.704;2023-07-22T07:42:26;100877.91;;;22.26;52.47
74680;BME280;63211;48.548;2.704;2023-07-22T07:44:52;100879.81;;;22.25;52.66
74680;BME280;63211;48.548;2.704;2023-07-22T07:47:19;100880.66;;;22.26;52.83
74680;BME280;63211;48.548;2.704;2023-07-22T07:49:46;100879.31;;;22.28;52.56
74680;BME280;63211;48.548;2.704;2023-07-22T07:52:13;100875.41;;;22.24;52.80
74680;BME280;63211;48.548;2.704;2023-07-22T07:54:39;100879.06;;;22.30;52.64
74680;BME280;63211;48.548;2.704;2023-07-22T07:57:06;100879.91;;;22.31;52.89
74680;BME280;63211;48.548;2.704;2023-07-22T07:59:34;100879.91;;;22.31;53.09
74680;BME280;63211;48.548;2.704;2023-07-22T08:02:01;100876.25;;;22.25;52.70
74680;BME280;63211;48.548;2.704;2023-07-22T08:04:29;100883.50;;;22.31;52.71
74680;BME280;63211;48.548;2.704;2023-07-22T08:06:56;100888.97;;;22.31;53.09
74680;BME280;63211;48.548;2.704;2023-07-22T08:09:22;100886.22;;;22.31;52.81
74680;BME280;63211;48.548;2.704;2023-07-22T08:11:49;100894.47;;;22.31;53.01
74680;BME280;63211;48.548;2.704;2023-07-22T08:14:16;100892.56;;;22.32;52.87
74680;BME280;63211;48.548;2.704;2023-07-22T08:16:45;100890.06;;;22.30;53.36
74680;BME280;63211;48.548;2.704;2023-07-22T08:19:11;100892.56;;;22.32;52.96
74680;BME280;63211;48.548;2.704;2023-07-22T08:21:38;100902.44;;;22.33;53.19
74680;BME280;63211;48.548;2.704;2023-07-22T08:24:05;100884.22;;;22.26;52.88
74680;BME280;63211;48.548;2.704;2023-07-22T08:26:32;100904.09;;;22.34;53.05
74680;BME280;63211;48.548;2.704;2023-07-22T08:28:59;100902.44;;;22.33;52.89
74680;BME280;63211;48.548;2.704;2023-07-22T08:31:25;100898.63;;;22.34;53.27
74680;BME280;63211;48.548;2.704;2023-07-22T08:33:53;100896.72;;;22.34;53.29
74680;BME280;63211;48.548;2.704;2023-07-22T08:36:20;100896.13;;;22.32;53.51
74680;BME280;63211;48.548;2.704;2023-07-22T08:38:47;100893.97;;;22.34;53.50
74680;BME280;63211;48.548;2.704;2023-07-22T08:41:14;100892.06;;;22.35;53.51
74680;BME280;63211;48.548;2.704;2023-07-22T08:43:44;100894.81;;;22.35;53.39
74680;BME280;63211;48.548;2.704;2023-07-22T08:46:12;100879.56;;;22.27;53.45
74680;BME280;63211;48.548;2.704;2023-07-22T08:48:41;100881.91;;;22.35;53.69
74680;BME280;63211;48.548;2.704;2023-07-22T08:51:15;100867.28;;;22.29;53.32
74680;BME280;63211;48.548;2.704;2023-07-22T08:53:43;100874.66;;;22.29;53.24
74680;BME280;63211;48.548;2.704;2023-07-22T08:56:09;100870.03;;;22.29;53.06
74680;BME280;63211;48.548;2.704;2023-07-22T08:58:37;100869.03;;;22.36;53.42
74680;BME280;63211;48.548;2.704;2023-07-22T09:01:05;100885.00;;;22.39;53.49
74680;BME280;63211;48.548;2.704;2023-07-22T09:03:32;100878.09;;;22.36;53.57
74680;BME280;63211;48.548;2.704;2023-07-22T09:05:59;100880.34;;;22.39;53.41
74680;BME280;63211;48.548;2.704;2023-07-22T09:08:27;100879.50;;;22.39;53.55
74680;BME280;63211;48.548;2.704;2023-07-22T09:10:53;100872.13;;;22.39;53.49
74680;BME280;63211;48.548;2.704;2023-07-22T09:13:21;100878.69;;;22.38;53.70
74680;BME280;63211;48.548;2.704;2023-07-22T09:15:49;100866.88;;;22.38;53.66
74680;BME280;63211;48.548;2.704;2023-07-22T09:18:17;100879.03;;;22.42;53.64
74680;BME280;63211;48.548;2.704;2023-07-22T09:20:43;100869.13;;;22.41;53.75
74680;BME280;63211;48.548;2.704;2023-07-22T09:23:11;100853.16;;;22.38;53.52
74680;BME280;63211;48.548;2.704;2023-07-22T09:25:40;100857.91;;;22.42;54.03
74680;BME280;63211;48.548;2.704;2023-07-22T09:28:07;100858.75;;;22.43;53.41
74680;BME280;63211;48.548;2.704;2023-07-22T09:30:35;100865.91;;;22.44;53.76
74680;BME280;63211;48.548;2.704;2023-07-22T09:33:03;100856.84;;;22.43;53.60
74680;BME280;63211;48.548;2.704;2023-07-22T09:35:32;100858.50;;;22.44;53.96
74680;BME280;63211;48.548;2.704;2023-07-22T09:38:09;100853.81;;;22.45;53.84
74680;BME280;63211;48.548;2.704;2023-07-22T09:40:41;100847.44;;;22.39;53.83
74680;BME280;63211;48.548;2.704;2023-07-22T09:43:10;100815.59;;;22.21;53.83
74680;BME280;63211;48.548;2.704;2023-07-22T09:45:37;100849.44;;;22.44;53.83
74680;BME280;63211;48.548;2.704;2023-07-22T09:48:04;100857.13;;;22.47;53.84
74680;BME280;63211;48.548;2.704;2023-07-22T09:50:31;100857.97;;;22.47;53.39
74680;BME280;63211;48.548;2.704;2023-07-22T09:52:59;100857.13;;;22.47;53.84
74680;BME280;63211;48.548;2.704;2023-07-22T09:55:27;100849.50;;;22.49;53.51
74680;BME280;63211;48.548;2.704;2023-07-22T09:57:57;100849.50;;;22.49;53.73
74680;BME280;63211;48.548;2.704;2023-07-22T10:00:25;100846.75;;;22.49;53.89
74680;BME280;63211;48.548;2.704;2023-07-22T10:02:56;100851.16;;;22.50;53.77
74680;BME280;63211;48.548;2.704;2023-07-22T10:05:24;100852.81;;;22.51;53.92
74680;BME280;63211;48.548;2.704;2023-07-22T10:07:53;100825.97;;;22.36;53.84
74680;BME280;63211;48.548;2.704;2023-07-22T10:10:31;100835.19;;;22.47;53.92
74680;BME280;63211;48.548;2.704;2023-07-22T10:12:59;100855.31;;;22.52;53.72
74680;BME280;63211;48.548;2.704;2023-07-22T10:15:29;100848.16;;;22.51;53.40
74680;BME280;63211;48.548;2.704;2023-07-22T10:17:56;100836.28;;;22.46;53.59
74680;BME280;63211;48.548;2.704;2023-07-22T10:20:24;100843.50;;;22.52;53.37
74680;BME280;63211;48.548;2.704;2023-07-22T10:22:51;100835.88;;;22.54;53.80
74680;BME280;63211;48.548;2.704;2023-07-22T10:25:19;100824.22;;;22.47;53.51
74680;BME280;63211;48.548;2.704;2023-07-22T10:27:46;100833.13;;;22.54;53.52
74680;BME280;63211;48.548;2.704;2023-07-22T10:30:16;100823.13;;;22.48;53.70
74680;BME280;63211;48.548;2.704;2023-07-22T10:32:45;100838.13;;;22.57;53.81
74680;BME280;63211;48.548;2.704;2023-07-22T10:35:14;100825.72;;;22.54;53.34
74680;BME280;63211;48.548;2.704;2023-07-22T10:37:45;100827.72;;;22.59;53.70
74680;BME280;63211;48.548;2.704;2023-07-22T10:40:19;100832.38;;;22.58;53.35
74680;BME280;63211;48.548;2.704;2023-07-22T10:43:00;100822.47;;;22.57;53.39
74680;BME280;63211;48.548;2.704;2023-07-22T10:45:32;100832.13;;;22.60;53.94
74680;BME280;63211;48.548;2.704;2023-07-22T10:48:05;100826.63;;;22.60;53.56
74680;BME280;63211;48.548;2.704;2023-07-22T10:50:39;100818.16;;;22.61;53.36
74680;BME280;63211;48.548;2.704;2023-07-22T10:53:08;100815.66;;;22.60;53.93
74680;BME280;63211;48.548;2.704;2023-07-22T10:58:24;100811.59;;;22.62;53.79
74680;BME280;63211;48.548;2.704;2023-07-22T11:00:53;100808.84;;;22.62;53.64
74680;BME280;63211;48.548;2.704;2023-07-22T11:03:19;100804.19;;;22.63;53.56
74680;BME280;63211;48.548;2.704;2023-07-22T11:05:50;100789.78;;;22.56;53.48
74680;BME280;63211;48.548;2.704;2023-07-22T11:08:36;100800.34;;;22.64;53.77
74680;BME280;63211;48.548;2.704;2023-07-22T11:11:03;100796.53;;;22.65;53.66
74680;BME280;63211;48.548;2.704;2023-07-22T11:13:35;100793.78;;;22.65;53.49
74680;BME280;63211;48.548;2.704;2023-07-22T11:16:10;100789.94;;;22.66;53.48
74680;BME280;63211;48.548;2.704;2023-07-22T11:18:37;100780.06;;;22.65;53.94
74680;BME280;63211;48.548;2.704;2023-07-22T11:21:07;100778.13;;;22.66;53.51
74680;BME280;63211;48.548;2.704;2023-07-22T11:23:34;100763.28;;;22.61;53.72
74680;BME280;63211;48.548;2.704;2023-07-22T11:26:01;100772.34;;;22.62;53.86
74680;BME280;63211;48.548;2.704;2023-07-22T11:28:28;100774.88;;;22.69;53.69
74680;BME280;63211;48.548;2.704;2023-07-22T11:30:55;100772.13;;;22.69;53.48
74680;BME280;63211;48.548;2.704;2023-07-22T11:33:23;100771.06;;;22.70;53.56
74680;BME280;63211;48.548;2.704;2023-07-22T11:35:50;100767.72;;;22.68;53.91
74680;BME280;63211;48.548;2.704;2023-07-22T11:38:16;100769.13;;;22.70;53.82
74680;BME280;63211;48.548;2.704;2023-07-22T11:40:43;100762.00;;;22.69;53.58
74680;BME280;63211;48.548;2.704;2023-07-22T11:43:10;100764.47;;;22.71;53.70
74680;BME280;63211;48.548;2.704;2023-07-22T11:45:38;100755.41;;;22.70;53.88
74680;BME280;63211;48.548;2.704;2023-07-22T11:48:09;100757.09;;;22.71;53.79
74680;BME280;63211;48.548;2.704;2023-07-22T11:50:37;100757.34;;;22.70;53.67
74680;BME280;63211;48.548;2.704;2023-07-22T11:53:03;100753.19;;;22.67;53.62
74680;BME280;63211;48.548;2.704;2023-07-22T11:55:30;100741.69;;;22.70;54.21
74680;BME280;63211;48.548;2.704;2023-07-22T11:58:00;100755.16;;;22.72;54.19
74680;BME280;63211;48.548;2.704;2023-07-22T12:00:28;100744.44;;;22.70;54.00
74680;BME280;63211;48.548;2.704;2023-07-22T12:02:55;100741.69;;;22.70;54.14
74680;BME280;63211;48.548;2.704;2023-07-22T12:05:22;100747.75;;;22.72;54.18
74680;BME280;63211;48.548;2.704;2023-07-22T12:07:50;100746.69;;;22.73;54.24
74680;BME280;63211;48.548;2.704;2023-07-22T12:10:17;100743.34;;;22.71;54.20
74680;BME280;63211;48.548;2.704;2023-07-22T12:12:45;100748.84;;;22.71;53.83
74680;BME280;63211;48.548;2.704;2023-07-22T12:15:14;100743.94;;;22.73;54.22
74680;BME280;63211;48.548;2.704;2023-07-22T12:17:47;100742.03;;;22.74;53.63
74680;BME280;63211;48.548;2.704;2023-07-22T12:20:15;100742.84;;;22.74;53.53
74680;BME280;63211;48.548;2.704;2023-07-22T12:22:42;100748.34;;;22.74;54.09
74680;BME280;63211;48.548;2.704;2023-07-22T12:25:10;100740.09;;;22.74;53.63
74680;BME280;63211;48.548;2.704;2023-07-22T12:27:37;100730.78;;;22.75;54.13
74680;BME280;63211;48.548;2.704;2023-07-22T12:30:05;100732.72;;;22.75;53.81
74680;BME280;63211;48.548;2.704;2023-07-22T12:32:32;100737.13;;;22.76;53.81
74680;BME280;63211;48.548;2.704;2023-07-22T12:34:58;100730.22;;;22.73;53.84
74680;BME280;63211;48.548;2.704;2023-07-22T12:37:25;100731.63;;;22.76;54.10
74680;BME280;63211;48.548;2.704;2023-07-22T12:39:52;100733.53;;;22.75;54.12
74680;BME280;63211;48.548;2.704;2023-07-22T12:42:19;100726.13;;;22.76;53.82
74680;BME280;63211;48.548;2.704;2023-07-22T12:44:46;100734.38;;;22.76;53.97
74680;BME280;63211;48.548;2.704;2023-07-22T12:47:13;100724.41;;;22.70;54.08
74680;BME280;63211;48.548;2.704;2023-07-22T12:49:39;100723.38;;;22.76;54.15
74680;BME280;63211;48.548;2.704;2023-07-22T12:52:06;100735.19;;;22.76;53.65
74680;BME280;63211;48.548;2.704;2023-07-22T12:54:34;100728.66;;;22.77;54.22
74680;BME280;63211;48.548;2.704;2023-07-22T12:57:01;100729.50;;;22.78;54.14
74680;BME280;63211;48.548;2.704;2023-07-22T12:59:29;100723.16;;;22.77;54.29